CheckWX is a tool to help pilots better visualize weather data.  It is not intended as a substitute for an official pre-flight weather briefing.

20:38:45 UTC

EGMC METAR
Southend Airport
Southend, United Kingdom
Current

19 mins ago

EGMC 162020Z 18008KT CAVOK 20/14 Q1017
Observed
Jul-16 @ 20:20 UTC
Wind
  • 180° at 8 KTS
Visibility
10,000+ meters
Flight Rules
VFR
Cloud Levels
  • Clear skies
Temperature
20°C / 68°F
Dewpoint
14°C / 57°F
Humidity
69%
Altimeter
30.03" Hg
Pressure
1016.92 hPa
Previous

49 mins ago

EGMC 161950Z 18010KT CAVOK 21/14 Q1017
Observed
Jul-16 @ 19:50 UTC
Wind
  • 180° at 10 KTS
Visibility
10,000+ meters
Flight Rules
VFR
Cloud Levels
  • Clear skies
Temperature
21°C / 70°F
Dewpoint
14°C / 57°F
Humidity
64%
Altimeter
30.03" Hg
Pressure
1016.92 hPa
Previous

1 hour ago

EGMC 161920Z 19011KT CAVOK 22/14 Q1017
Observed
Jul-16 @ 19:20 UTC
Wind
  • 190° at 11 KTS
Visibility
10,000+ meters
Flight Rules
VFR
Cloud Levels
  • Clear skies
Temperature
22°C / 72°F
Dewpoint
14°C / 57°F
Humidity
61%
Altimeter
30.03" Hg
Pressure
1016.92 hPa